sensor_id;sensor_type;location;lat;lon;timestamp;temperature;humidity
5128;DHT22;2582;48.770;9.190;2023-05-07T00:01:06;16.80;99.90
5128;DHT22;2582;48.770;9.190;2023-05-07T00:03:32;16.70;99.90
5128;DHT22;2582;48.770;9.190;2023-05-07T00:05:58;16.70;99.90
5128;DHT22;2582;48.770;9.190;2023-05-07T00:08:23;16.80;99.90
5128;DHT22;2582;48.770;9.190;2023-05-07T00:10:49;16.90;99.90
5128;DHT22;2582;48.770;9.190;2023-05-07T00:13:15;16.90;99.90
5128;DHT22;2582;48.770;9.190;2023-05-07T00:15:40;16.90;99.90
5128;DHT22;2582;48.770;9.190;2023-05-07T00:18:06;16.80;99.90
5128;DHT22;2582;48.770;9.190;2023-05-07T00:20:32;16.80;99.90
5128;DHT22;2582;48.770;9.190;2023-05-07T00:22:57;16.80;99.90
5128;DHT22;2582;48.770;9.190;2023-05-07T00:25:23;16.70;99.90
5128;DHT22;2582;48.770;9.190;2023-05-07T00:27:48;16.60;99.90
5128;DHT22;2582;48.770;9.190;2023-05-07T00:30:14;16.70;99.90
5128;DHT22;2582;48.770;9.190;2023-05-07T00:32:40;16.60;99.90
5128;DHT22;2582;48.770;9.190;2023-05-07T00:35:06;16.60;99.90
5128;DHT22;2582;48.770;9.190;2023-05-07T00:37:31;16.50;99.90
5128;DHT22;2582;48.770;9.190;2023-05-07T00:39:57;16.40;99.90
5128;DHT22;2582;48.770;9.190;2023-05-07T00:42:23;16.40;99.90
5128;DHT22;2582;48.770;9.190;2023-05-07T00:44:49;16.50;99.90
5128;DHT22;2582;48.770;9.190;2023-05-07T00:47:15;16.50;99.90
5128;DHT22;2582;48.770;9.190;2023-05-07T00:49:43;16.50;99.90
5128;DHT22;2582;48.770;9.190;2023-05-07T00:52:11;16.40;99.90
5128;DHT22;2582;48.770;9.190;2023-05-07T00:54:38;16.30;99.90
5128;DHT22;2582;48.770;9.190;2023-05-07T00:57:05;16.30;99.90
5128;DHT22;2582;48.770;9.190;2023-05-07T00:59:32;16.20;99.90
5128;DHT22;2582;48.770;9.190;2023-05-07T01:01:57;16.10;99.90
5128;DHT22;2582;48.770;9.190;2023-05-07T01:04:23;16.00;99.90
5128;DHT22;2582;48.770;9.190;2023-05-07T01:06:49;16.10;99.90
5128;DHT22;2582;48.770;9.190;2023-05-07T01:09:15;16.10;99.90
5128;DHT22;2582;48.770;9.190;2023-05-07T01:11:42;16.10;99.90
5128;DHT22;2582;48.770;9.190;2023-05-07T01:14:09;16.10;99.90
5128;DHT22;2582;48.770;9.190;2023-05-07T01:16:36;16.00;99.90
5128;DHT22;2582;48.770;9.190;2023-05-07T01:19:02;16.00;99.90
5128;DHT22;2582;48.770;9.190;2023-05-07T01:21:33;16.00;99.90
5128;DHT22;2582;48.770;9.190;2023-05-07T01:23:59;15.90;99.90
5128;DHT22;2582;48.770;9.190;2023-05-07T01:26:24;15.90;99.90
5128;DHT22;2582;48.770;9.190;2023-05-07T01:28:50;15.90;99.90
5128;DHT22;2582;48.770;9.190;2023-05-07T01:31:16;16.00;99.90
5128;DHT22;2582;48.770;9.190;2023-05-07T01:33:43;16.00;99.90
5128;DHT22;2582;48.770;9.190;2023-05-07T01:36:12;16.00;99.90
5128;DHT22;2582;48.770;9.190;2023-05-07T01:38:39;16.00;99.90
5128;DHT22;2582;48.770;9.190;2023-05-07T01:41:06;15.90;99.90
5128;DHT22;2582;48.770;9.190;2023-05-07T01:43:32;15.90;99.90
5128;DHT22;2582;48.770;9.190;2023-05-07T01:45:58;15.90;99.90
5128;DHT22;2582;48.770;9.190;2023-05-07T01:48:25;15.90;99.90
5128;DHT22;2582;48.770;9.190;2023-05-07T01:50:51;16.00;99.90
5128;DHT22;2582;48.770;9.190;2023-05-07T01:53:17;15.90;99.90
5128;DHT22;2582;48.770;9.190;2023-05-07T01:55:43;15.80;99.90
5128;DHT22;2582;48.770;9.190;2023-05-07T01:58:08;15.80;99.90
5128;DHT22;2582;48.770;9.190;2023-05-07T02:00:34;15.80;99.90
5128;DHT22;2582;48.770;9.190;2023-05-07T02:02:59;15.70;99.90
5128;DHT22;2582;48.770;9.190;2023-05-07T02:05:25;15.70;99.90
5128;DHT22;2582;48.770;9.190;2023-05-07T02:07:50;15.80;99.90
5128;DHT22;2582;48.770;9.190;2023-05-07T02:10:16;15.80;99.90
5128;DHT22;2582;48.770;9.190;2023-05-07T02:12:41;15.80;99.90
5128;DHT22;2582;48.770;9.190;2023-05-07T02:15:08;15.80;99.90
5128;DHT22;2582;48.770;9.190;2023-05-07T02:17:33;15.70;99.90
5128;DHT22;2582;48.770;9.190;2023-05-07T02:19:59;15.70;99.90
5128;DHT22;2582;48.770;9.190;2023-05-07T02:22:25;15.60;99.90
5128;DHT22;2582;48.770;9.190;2023-05-07T02:24:51;15.60;99.90
5128;DHT22;2582;48.770;9.190;2023-05-07T02:27:16;15.60;99.90
5128;DHT22;2582;48.770;9.190;2023-05-07T02:29:42;15.70;99.90
5128;DHT22;2582;48.770;9.190;2023-05-07T02:32:07;15.70;99.90
5128;DHT22;2582;48.770;9.190;2023-05-07T02:34:33;15.70;99.90
5128;DHT22;2582;48.770;9.190;2023-05-07T02:36:59;15.70;99.90
5128;DHT22;2582;48.770;9.190;2023-05-07T02:39:24;15.60;99.90
5128;DHT22;2582;48.770;9.190;2023-05-07T02:41:50;15.50;99.90
5128;DHT22;2582;48.770;9.190;2023-05-07T02:44:15;15.40;99.90
5128;DHT22;2582;48.770;9.190;2023-05-07T02:46:41;15.30;99.90
5128;DHT22;2582;48.770;9.190;2023-05-07T02:49:07;15.40;99.90
5128;DHT22;2582;48.770;9.190;2023-05-07T02:51:32;15.40;99.90
5128;DHT22;2582;48.770;9.190;2023-05-07T02:53:58;15.40;99.90
5128;DHT22;2582;48.770;9.190;2023-05-07T02:56:26;15.30;99.90
5128;DHT22;2582;48.770;9.190;2023-05-07T02:58:51;15.30;99.90
5128;DHT22;2582;48.770;9.190;2023-05-07T03:01:17;15.20;99.90
5128;DHT22;2582;48.770;9.190;2023-05-07T03:03:42;15.10;99.90
5128;DHT22;2582;48.770;9.190;2023-05-07T03:06:08;15.10;99.90
5128;DHT22;2582;48.770;9.190;2023-05-07T03:08:33;15.00;99.90
5128;DHT22;2582;48.770;9.190;2023-05-07T03:10:59;15.00;99.90
5128;DHT22;2582;48.770;9.190;2023-05-07T03:13:24;14.90;99.90
5128;DHT22;2582;48.770;9.190;2023-05-07T03:15:50;15.00;99.90
5128;DHT22;2582;48.770;9.190;2023-05-07T03:18:16;14.90;99.90
5128;DHT22;2582;48.770;9.190;2023-05-07T03:20:41;14.90;99.90
5128;DHT22;2582;48.770;9.190;2023-05-07T03:23:07;14.90;99.90
5128;DHT22;2582;48.770;9.190;2023-05-07T03:25:32;14.90;99.90
5128;DHT22;2582;48.770;9.190;2023-05-07T03:27:58;15.00;99.90
5128;DHT22;2582;48.770;9.190;2023-05-07T03:30:24;15.00;99.90
5128;DHT22;2582;48.770;9.190;2023-05-07T03:32:50;14.90;99.90
5128;DHT22;2582;48.770;9.190;2023-05-07T03:35:15;14.90;99.90
5128;DHT22;2582;48.770;9.190;2023-05-07T03:37:42;14.90;99.90
5128;DHT22;2582;48.770;9.190;2023-05-07T03:40:08;14.90;99.90
5128;DHT22;2582;48.770;9.190;2023-05-07T03:42:35;14.80;99.90
5128;DHT22;2582;48.770;9.190;2023-05-07T03:45:01;14.70;99.90
5128;DHT22;2582;48.770;9.190;2023-05-07T03:47:26;14.70;99.90
5128;DHT22;2582;48.770;9.190;2023-05-07T03:49:52;14.80;99.90
5128;DHT22;2582;48.770;9.190;2023-05-07T03:52:19;14.70;99.90
5128;DHT22;2582;48.770;9.190;2023-05-07T03:54:49;14.70;99.90
5128;DHT22;2582;48.770;9.190;2023-05-07T03:57:14;14.80;99.90
5128;DHT22;2582;48.770;9.190;2023-05-07T03:59:40;14.80;99.90
5128;DHT22;2582;48.770;9.190;2023-05-07T04:02:06;14.70;99.90
5128;DHT22;2582;48.770;9.190;2023-05-07T04:04:31;14.70;99.90
5128;DHT22;2582;48.770;9.190;2023-05-07T04:06:58;14.60;99.90
5128;DHT22;2582;48.770;9.190;2023-05-07T04:09:24;14.60;99.90
5128;DHT22;2582;48.770;9.190;2023-05-07T04:11:50;14.60;99.90
5128;DHT22;2582;48.770;9.190;2023-05-07T04:14:16;14.60;99.90
5128;DHT22;2582;48.770;9.190;2023-05-07T04:16:41;14.60;99.90
5128;DHT22;2582;48.770;9.190;2023-05-07T04:19:07;14.70;99.90
5128;DHT22;2582;48.770;9.190;2023-05-07T04:21:32;14.70;99.90
5128;DHT22;2582;48.770;9.190;2023-05-07T04:23:58;14.70;99.90
5128;DHT22;2582;48.770;9.190;2023-05-07T04:26:23;14.80;99.90
5128;DHT22;2582;48.770;9.190;2023-05-07T04:28:49;14.70;99.90
5128;DHT22;2582;48.770;9.190;2023-05-07T04:31:15;14.70;99.90
5128;DHT22;2582;48.770;9.190;2023-05-07T04:33:41;14.70;99.90
5128;DHT22;2582;48.770;9.190;2023-05-07T04:36:07;14.80;99.90
5128;DHT22;2582;48.770;9.190;2023-05-07T04:38:33;14.60;99.90
5128;DHT22;2582;48.770;9.190;2023-05-07T04:41:03;14.70;99.90
5128;DHT22;2582;48.770;9.190;2023-05-07T04:43:29;14.70;99.90
5128;DHT22;2582;48.770;9.190;2023-05-07T04:45:54;14.70;99.90
5128;DHT22;2582;48.770;9.190;2023-05-07T04:48:20;14.80;99.90
5128;DHT22;2582;48.770;9.190;2023-05-07T04:50:52;14.80;99.90
5128;DHT22;2582;48.770;9.190;2023-05-07T04:53:18;14.80;99.90
5128;DHT22;2582;48.770;9.190;2023-05-07T04:55:44;14.80;99.90
5128;DHT22;2582;48.770;9.190;2023-05-07T04:58:11;14.80;99.90
5128;DHT22;2582;48.770;9.190;2023-05-07T05:00:37;14.90;99.90
5128;DHT22;2582;48.770;9.190;2023-05-07T05:03:04;14.90;99.90
5128;DHT22;2582;48.770;9.190;2023-05-07T05:05:30;14.90;99.90
5128;DHT22;2582;48.770;9.190;2023-05-07T05:07:55;14.90;99.90
5128;DHT22;2582;48.770;9.190;2023-05-07T05:10:21;14.90;99.90
5128;DHT22;2582;48.770;9.190;2023-05-07T05:12:47;14.90;99.90
5128;DHT22;2582;48.770;9.190;2023-05-07T05:15:13;14.90;99.90
5128;DHT22;2582;48.770;9.190;2023-05-07T05:17:39;14.90;99.90
5128;DHT22;2582;48.770;9.190;2023-05-07T05:20:05;15.00;99.90
5128;DHT22;2582;48.770;9.190;2023-05-07T05:22:31;15.10;99.90
5128;DHT22;2582;48.770;9.190;2023-05-07T05:24:57;15.00;99.90
5128;DHT22;2582;48.770;9.190;2023-05-07T05:27:23;14.90;99.90
5128;DHT22;2582;48.770;9.190;2023-05-07T05:29:48;14.90;99.90
5128;DHT22;2582;48.770;9.190;2023-05-07T05:32:14;15.00;99.90
5128;DHT22;2582;48.770;9.190;2023-05-07T05:34:39;15.30;99.90
5128;DHT22;2582;48.770;9.190;2023-05-07T05:37:05;15.50;99.90
5128;DHT22;2582;48.770;9.190;2023-05-07T05:39:31;15.70;99.90
5128;DHT22;2582;48.770;9.190;2023-05-07T05:41:56;15.90;99.90
5128;DHT22;2582;48.770;9.190;2023-05-07T05:44:22;16.10;99.90
5128;DHT22;2582;48.770;9.190;2023-05-07T05:46:48;16.20;99.90
5128;DHT22;2582;48.770;9.190;2023-05-07T05:49:15;16.30;99.90
5128;DHT22;2582;48.770;9.190;2023-05-07T05:51:41;16.40;99.90
5128;DHT22;2582;48.770;9.190;2023-05-07T05:54:06;16.60;99.90
5128;DHT22;2582;48.770;9.190;2023-05-07T05:56:32;16.70;99.90
5128;DHT22;2582;48.770;9.190;2023-05-07T05:58:58;16.80;99.90
5128;DHT22;2582;48.770;9.190;2023-05-07T06:01:23;16.90;99.90
5128;DHT22;2582;48.770;9.190;2023-05-07T06:03:49;17.00;99.90
5128;DHT22;2582;48.770;9.190;2023-05-07T06:06:15;17.10;99.90
5128;DHT22;2582;48.770;9.190;2023-05-07T06:08:40;17.20;99.90
5128;DHT22;2582;48.770;9.190;2023-05-07T06:11:06;17.40;99.90
5128;DHT22;2582;48.770;9.190;2023-05-07T06:13:31;17.50;99.90
5128;DHT22;2582;48.770;9.190;2023-05-07T06:15:58;17.60;99.90
5128;DHT22;2582;48.770;9.190;2023-05-07T06:18:23;17.70;99.90
5128;DHT22;2582;48.770;9.190;2023-05-07T06:20:49;17.90;99.90
5128;DHT22;2582;48.770;9.190;2023-05-07T06:23:14;17.90;99.90
5128;DHT22;2582;48.770;9.190;2023-05-07T06:25:40;17.70;99.90
5128;DHT22;2582;48.770;9.190;2023-05-07T06:28:06;17.80;99.90
5128;DHT22;2582;48.770;9.190;2023-05-07T06:30:31;17.90;99.90
5128;DHT22;2582;48.770;9.190;2023-05-07T06:32:57;18.00;99.90
5128;DHT22;2582;48.770;9.190;2023-05-07T06:35:22;17.90;99.90
5128;DHT22;2582;48.770;9.190;2023-05-07T06:37:48;17.70;99.90
5128;DHT22;2582;48.770;9.190;2023-05-07T06:40:13;17.70;99.90
5128;DHT22;2582;48.770;9.190;2023-05-07T06:42:39;17.60;99.90
5128;DHT22;2582;48.770;9.190;2023-05-07T06:45:05;17.70;99.90
5128;DHT22;2582;48.770;9.190;2023-05-07T06:47:30;17.40;99.90
5128;DHT22;2582;48.770;9.190;2023-05-07T06:49:56;17.10;99.90
5128;DHT22;2582;48.770;9.190;2023-05-07T06:52:22;17.20;99.90
5128;DHT22;2582;48.770;9.190;2023-05-07T06:54:47;17.50;99.90
5128;DHT22;2582;48.770;9.190;2023-05-07T06:57:13;17.70;99.90
5128;DHT22;2582;48.770;9.190;2023-05-07T06:59:38;17.60;99.90
5128;DHT22;2582;48.770;9.190;2023-05-07T07:02:04;17.70;99.90
5128;DHT22;2582;48.770;9.190;2023-05-07T07:04:29;17.80;99.90
5128;DHT22;2582;48.770;9.190;2023-05-07T07:06:55;17.90;99.90
5128;DHT22;2582;48.770;9.190;2023-05-07T07:09:22;17.70;99.90
5128;DHT22;2582;48.770;9.190;2023-05-07T07:11:47;17.60;99.90
5128;DHT22;2582;48.770;9.190;2023-05-07T07:14:13;17.50;99.90
5128;DHT22;2582;48.770;9.190;2023-05-07T07:16:39;17.60;99.90
5128;DHT22;2582;48.770;9.190;2023-05-07T07:19:05;17.40;99.90
5128;DHT22;2582;48.770;9.190;2023-05-07T07:21:30;17.50;99.90
5128;DHT22;2582;48.770;9.190;2023-05-07T07:23:57;17.60;99.90
5128;DHT22;2582;48.770;9.190;2023-05-07T07:26:22;17.80;99.90
5128;DHT22;2582;48.770;9.190;2023-05-07T07:28:48;18.00;99.90
5128;DHT22;2582;48.770;9.190;2023-05-07T07:31:14;18.10;99.90
5128;DHT22;2582;48.770;9.190;2023-05-07T07:33:40;18.60;99.90
5128;DHT22;2582;48.770;9.190;2023-05-07T07:36:07;18.80;99.90
5128;DHT22;2582;48.770;9.190;2023-05-07T07:38:33;19.00;99.90
5128;DHT22;2582;48.770;9.190;2023-05-07T07:40:59;19.30;99.90
5128;DHT22;2582;48.770;9.190;2023-05-07T07:43:25;19.50;99.90
5128;DHT22;2582;48.770;9.190;2023-05-07T07:45:50;19.50;99.90
5128;DHT22;2582;48.770;9.190;2023-05-07T07:48:16;19.60;99.90
5128;DHT22;2582;48.770;9.190;2023-05-07T07:50:42;19.80;99.90
5128;DHT22;2582;48.770;9.190;2023-05-07T07:53:07;20.00;99.90
5128;DHT22;2582;48.770;9.190;2023-05-07T07:55:38;20.10;99.90
5128;DHT22;2582;48.770;9.190;2023-05-07T07:58:04;20.40;99.90
5128;DHT22;2582;48.770;9.190;2023-05-07T08:00:29;20.80;99.90
5128;DHT22;2582;48.770;9.190;2023-05-07T08:02:55;21.20;99.90
5128;DHT22;2582;48.770;9.190;2023-05-07T08:05:21;21.00;99.90
5128;DHT22;2582;48.770;9.190;2023-05-07T08:07:47;21.20;99.90
5128;DHT22;2582;48.770;9.190;2023-05-07T08:10:17;21.30;99.90
5128;DHT22;2582;48.770;9.190;2023-05-07T08:12:49;21.40;99.90
5128;DHT22;2582;48.770;9.190;2023-05-07T08:15:15;21.30;99.90
5128;DHT22;2582;48.770;9.190;2023-05-07T08:17:41;21.40;99.90
5128;DHT22;2582;48.770;9.190;2023-05-07T08:20:07;21.70;99.90
5128;DHT22;2582;48.770;9.190;2023-05-07T08:22:37;22.00;99.90
5128;DHT22;2582;48.770;9.190;2023-05-07T08:25:03;22.00;99.90
5128;DHT22;2582;48.770;9.190;2023-05-07T08:27:29;21.80;99.90
5128;DHT22;2582;48.770;9.190;2023-05-07T08:29:54;22.10;99.90
5128;DHT22;2582;48.770;9.190;2023-05-07T08:32:20;21.80;99.90
5128;DHT22;2582;48.770;9.190;2023-05-07T08:34:46;21.80;99.90
5128;DHT22;2582;48.770;9.190;2023-05-07T08:37:12;21.80;99.90
5128;DHT22;2582;48.770;9.190;2023-05-07T08:39:37;21.80;99.90
5128;DHT22;2582;48.770;9.190;2023-05-07T08:42:04;21.80;99.90
5128;DHT22;2582;48.770;9.190;2023-05-07T08:44:34;21.90;99.90
5128;DHT22;2582;48.770;9.190;2023-05-07T08:47:01;22.00;99.90
5128;DHT22;2582;48.770;9.190;2023-05-07T08:49:28;21.90;99.90
5128;DHT22;2582;48.770;9.190;2023-05-07T08:51:54;22.10;99.90
5128;DHT22;2582;48.770;9.190;2023-05-07T08:54:21;22.00;99.90
5128;DHT22;2582;48.770;9.190;2023-05-07T08:56:47;22.00;99.90
5128;DHT22;2582;48.770;9.190;2023-05-07T08:59:13;22.10;99.90
5128;DHT22;2582;48.770;9.190;2023-05-07T09:01:38;22.10;99.90
5128;DHT22;2582;48.770;9.190;2023-05-07T09:04:05;22.00;99.90
5128;DHT22;2582;48.770;9.190;2023-05-07T09:06:32;22.00;99.90
5128;DHT22;2582;48.770;9.190;2023-05-07T09:08:58;22.20;99.90
5128;DHT22;2582;48.770;9.190;2023-05-07T09:11:26;22.00;99.90
5128;DHT22;2582;48.770;9.190;2023-05-07T09:13:56;22.10;99.90
5128;DHT22;2582;48.770;9.190;2023-05-07T09:16:23;22.40;99.90
5128;DHT22;2582;48.770;9.190;2023-05-07T09:18:52;22.60;99.90
5128;DHT22;2582;48.770;9.190;2023-05-07T09:21:18;22.60;99.90
5128;DHT22;2582;48.770;9.190;2023-05-07T09:23:44;22.70;99.90
5128;DHT22;2582;48.770;9.190;2023-05-07T09:26:10;22.60;99.90
5128;DHT22;2582;48.770;9.190;2023-05-07T09:28:41;22.70;99.90
5128;DHT22;2582;48.770;9.190;2023-05-07T09:31:07;22.70;99.90
5128;DHT22;2582;48.770;9.190;2023-05-07T09:33:33;22.80;99.90
5128;DHT22;2582;48.770;9.190;2023-05-07T09:36:02;22.90;99.90
5128;DHT22;2582;48.770;9.190;2023-05-07T09:38:28;22.90;99.90
5128;DHT22;2582;48.770;9.190;2023-05-07T09:41:05;23.00;99.90
5128;DHT22;2582;48.770;9.190;2023-05-07T09:43:38;23.20;99.90
5128;DHT22;2582;48.770;9.190;2023-05-07T09:46:11;23.30;99.90
5128;DHT22;2582;48.770;9.190;2023-05-07T09:48:39;23.60;99.90
5128;DHT22;2582;48.770;9.190;2023-05-07T09:51:34;23.50;99.90
5128;DHT22;2582;48.770;9.190;2023-05-07T09:54:03;23.70;99.90
5128;DHT22;2582;48.770;9.190;2023-05-07T09:56:30;23.50;99.90
5128;DHT22;2582;48.770;9.190;2023-05-07T09:58:59;23.70;99.90
5128;DHT22;2582;48.770;9.190;2023-05-07T10:01:25;23.80;99.90
5128;DHT22;2582;48.770;9.190;2023-05-07T10:03:52;24.00;99.90
5128;DHT22;2582;48.770;9.190;2023-05-07T10:06:21;24.30;99.90
5128;DHT22;2582;48.770;9.190;2023-05-07T10:08:48;24.60;99.90
5128;DHT22;2582;48.770;9.190;2023-05-07T10:11:14;24.90;99.90
5128;DHT22;2582;48.770;9.190;2023-05-07T10:13:42;24.80;99.90
5128;DHT22;2582;48.770;9.190;2023-05-07T10:16:08;25.00;99.90
5128;DHT22;2582;48.770;9.190;2023-05-07T10:18:33;25.10;99.90
5128;DHT22;2582;48.770;9.190;2023-05-07T10:21:19;25.10;99.90
5128;DHT22;2582;48.770;9.190;2023-05-07T10:23:49;25.00;98.00
5128;DHT22;2582;48.770;9.190;2023-05-07T10:26:15;25.00;99.10
5128;DHT22;2582;48.770;9.190;2023-05-07T10:28:46;25.10;99.00
5128;DHT22;2582;48.770;9.190;2023-05-07T10:34:11;25.30;98.80
5128;DHT22;2582;48.770;9.190;2023-05-07T10:36:38;25.30;98.00
5128;DHT22;2582;48.770;9.190;2023-05-07T10:39:05;25.10;97.90
5128;DHT22;2582;48.770;9.190;2023-05-07T10:41:31;25.10;98.90
5128;DHT22;2582;48.770;9.190;2023-05-07T10:43:57;25.30;98.50
5128;DHT22;2582;48.770;9.190;2023-05-07T10:46:26;26.00;98.30
5128;DHT22;2582;48.770;9.190;2023-05-07T10:49:12;27.00;97.20
5128;DHT22;2582;48.770;9.190;2023-05-07T10:51:38;27.20;95.40
5128;DHT22;2582;48.770;9.190;2023-05-07T10:56:39;27.10;94.70
5128;DHT22;2582;48.770;9.190;2023-05-07T11:04:18;27.40;94.00
5128;DHT22;2582;48.770;9.190;2023-05-07T11:15:05;26.90;92.90
5128;DHT22;2582;48.770;9.190;2023-05-07T11:17:31;27.30;92.20
5128;DHT22;2582;48.770;9.190;2023-05-07T11:20:01;28.40;90.70
5128;DHT22;2582;48.770;9.190;2023-05-07T11:25:05;29.60;84.20
5128;DHT22;2582;48.770;9.190;2023-05-07T11:27:32;29.70;83.70
5128;DHT22;2582;48.770;9.190;2023-05-07T11:29:58;28.60;82.30
5128;DHT22;2582;48.770;9.190;2023-05-07T11:32:26;28.10;82.60
5128;DHT22;2582;48.770;9.190;2023-05-07T11:34:52;27.60;83.90
5128;DHT22;2582;48.770;9.190;2023-05-07T11:37:19;27.40;84.70
5128;DHT22;2582;48.770;9.190;2023-05-07T11:39:45;27.10;86.70
5128;DHT22;2582;48.770;9.190;2023-05-07T11:42:31;26.90;84.00
5128;DHT22;2582;48.770;9.190;2023-05-07T11:44:57;26.60;86.60
5128;DHT22;2582;48.770;9.190;2023-05-07T11:47:22;26.70;87.10
5128;DHT22;2582;48.770;9.190;2023-05-07T11:49:52;26.30;88.00
5128;DHT22;2582;48.770;9.190;2023-05-07T11:52:19;25.80;89.40
5128;DHT22;2582;48.770;9.190;2023-05-07T11:54:49;25.70;91.00
5128;DHT22;2582;48.770;9.190;2023-05-07T11:57:15;25.20;92.30
5128;DHT22;2582;48.770;9.190;2023-05-07T11:59:41;25.10;92.80
5128;DHT22;2582;48.770;9.190;2023-05-07T12:02:08;25.10;93.30
5128;DHT22;2582;48.770;9.190;2023-05-07T12:04:34;24.90;93.80
5128;DHT22;2582;48.770;9.190;2023-05-07T12:06:59;24.60;93.80
5128;DHT22;2582;48.770;9.190;2023-05-07T12:09:26;24.40;94.30
5128;DHT22;2582;48.770;9.190;2023-05-07T12:11:52;24.40;94.90
5128;DHT22;2582;48.770;9.190;2023-05-07T12:14:18;24.10;95.20
5128;DHT22;2582;48.770;9.190;2023-05-07T12:16:44;24.00;96.30
5128;DHT22;2582;48.770;9.190;2023-05-07T12:19:11;23.90;97.50
5128;DHT22;2582;48.770;9.190;2023-05-07T12:21:38;23.70;98.70
5128;DHT22;2582;48.770;9.190;2023-05-07T12:24:04;23.50;98.80
5128;DHT22;2582;48.770;9.190;2023-05-07T12:26:30;23.40;99.90
5128;DHT22;2582;48.770;9.190;2023-05-07T12:28:57;23.20;99.90
5128;DHT22;2582;48.770;9.190;2023-05-07T12:31:25;22.60;99.90
5128;DHT22;2582;48.770;9.190;2023-05-07T12:33:50;22.40;99.90
5128;DHT22;2582;48.770;9.190;2023-05-07T12:36:16;21.90;99.90
5128;DHT22;2582;48.770;9.190;2023-05-07T12:38:42;21.50;99.90
5128;DHT22;2582;48.770;9.190;2023-05-07T12:41:09;20.90;99.90
5128;DHT22;2582;48.770;9.190;2023-05-07T12:43:35;20.70;99.90
5128;DHT22;2582;48.770;9.190;2023-05-07T12:46:04;20.70;99.90
5128;DHT22;2582;48.770;9.190;2023-05-07T12:48:30;20.30;99.90
5128;DHT22;2582;48.770;9.190;2023-05-07T12:50:57;19.80;99.90
5128;DHT22;2582;48.770;9.190;2023-05-07T12:53:25;18.90;99.90
5128;DHT22;2582;48.770;9.190;2023-05-07T12:55:52;18.10;99.90
5128;DHT22;2582;48.770;9.190;2023-05-07T12:58:29;17.50;99.90
5128;DHT22;2582;48.770;9.190;2023-05-07T13:00:57;17.20;99.90
5128;DHT22;2582;48.770;9.190;2023-05-07T13:05:51;16.90;99.90
5128;DHT22;2582;48.770;9.190;2023-05-07T13:08:31;16.70;99.90
5128;DHT22;2582;48.770;9.190;2023-05-07T13:10:59;16.60;99.90
5128;DHT22;2582;48.770;9.190;2023-05-07T13:13:25;16.20;99.90
5128;DHT22;2582;48.770;9.190;2023-05-07T13:15:51;16.00;99.90
5128;DHT22;2582;48.770;9.190;2023-05-07T13:18:17;16.00;99.90
5128;DHT22;2582;48.770;9.190;2023-05-07T13:20:43;16.00;99.90
5128;DHT22;2582;48.770;9.190;2023-05-07T13:23:08;16.00;99.90
5128;DHT22;2582;48.770;9.190;2023-05-07T13:25:34;15.90;99.90
5128;DHT22;2582;48.770;9.190;2023-05-07T13:28:00;15.90;99.90
5128;DHT22;2582;48.770;9.190;2023-05-07T13:30:25;15.90;99.90
5128;DHT22;2582;48.770;9.190;2023-05-07T13:32:53;16.00;99.90
5128;DHT22;2582;48.770;9.190;2023-05-07T13:35:19;16.00;99.90
5128;DHT22;2582;48.770;9.190;2023-05-07T13:37:44;16.20;99.90
5128;DHT22;2582;48.770;9.190;2023-05-07T13:40:11;16.20;99.90
5128;DHT22;2582;48.770;9.190;2023-05-07T13:42:36;16.00;99.90
5128;DHT22;2582;48.770;9.190;2023-05-07T13:45:02;15.90;99.90
5128;DHT22;2582;48.770;9.190;2023-05-07T13:47:30;16.10;99.90
5128;DHT22;2582;48.770;9.190;2023-05-07T13:49:56;16.10;99.90
5128;DHT22;2582;48.770;9.190;2023-05-07T13:52:21;16.20;99.90
5128;DHT22;2582;48.770;9.190;2023-05-07T13:54:47;16.30;99.90
5128;DHT22;2582;48.770;9.190;2023-05-07T13:57:12;16.40;99.90
5128;DHT22;2582;48.770;9.190;2023-05-07T13:59:38;16.60;99.90
5128;DHT22;2582;48.770;9.190;2023-05-07T14:02:04;16.50;99.90
5128;DHT22;2582;48.770;9.190;2023-05-07T14:04:30;16.40;99.90
5128;DHT22;2582;48.770;9.190;2023-05-07T14:06:56;16.20;99.90
5128;DHT22;2582;48.770;9.190;2023-05-07T14:09:21;16.30;99.90
5128;DHT22;2582;48.770;9.190;2023-05-07T14:11:47;16.50;99.90
5128;DHT22;2582;48.770;9.190;2023-05-07T14:14:17;16.50;99.90
5128;DHT22;2582;48.770;9.190;2023-05-07T14:16:42;16.60;99.90
5128;DHT22;2582;48.770;9.190;2023-05-07T14:19:08;16.80;99.90
5128;DHT22;2582;48.770;9.190;2023-05-07T14:21:33;16.90;99.90
5128;DHT22;2582;48.770;9.190;2023-05-07T14:23:59;16.90;99.90
5128;DHT22;2582;48.770;9.190;2023-05-07T14:26:25;16.70;99.90
5128;DHT22;2582;48.770;9.190;2023-05-07T14:28:52;16.60;99.90
5128;DHT22;2582;48.770;9.190;2023-05-07T14:31:20;16.60;99.90
5128;DHT22;2582;48.770;9.190;2023-05-07T14:33:46;16.60;99.90
5128;DHT22;2582;48.770;9.190;2023-05-07T14:36:11;16.50;99.90
5128;DHT22;2582;48.770;9.190;2023-05-07T14:38:37;16.70;99.90
5128;DHT22;2582;48.770;9.190;2023-05-07T14:41:03;16.70;99.90
5128;DHT22;2582;48.770;9.190;2023-05-07T14:43:29;16.70;99.90
5128;DHT22;2582;48.770;9.190;2023-05-07T14:45:54;16.70;99.90
5128;DHT22;2582;48.770;9.190;2023-05-07T14:48:20;16.70;99.90
5128;DHT22;2582;48.770;9.190;2023-05-07T14:50:47;16.70;99.90
5128;DHT22;2582;48.770;9.190;2023-05-07T14:53:13;16.70;99.90
5128;DHT22;2582;48.770;9.190;2023-05-07T14:55:39;16.90;99.90
5128;DHT22;2582;48.770;9.190;2023-05-07T14:58:05;17.10;99.90
5128;DHT22;2582;48.770;9.190;2023-05-07T15:00:30;17.10;99.90
5128;DHT22;2582;48.770;9.190;2023-05-07T15:03:07;17.20;99.90
5128;DHT22;2582;48.770;9.190;2023-05-07T15:05:33;17.40;99.90
5128;DHT22;2582;48.770;9.190;2023-05-07T15:07:59;17.70;99.90
5128;DHT22;2582;48.770;9.190;2023-05-07T15:10:25;17.80;99.90
5128;DHT22;2582;48.770;9.190;2023-05-07T15:12:51;17.80;99.90
5128;DHT22;2582;48.770;9.190;2023-05-07T15:15:16;17.80;99.90
5128;DHT22;2582;48.770;9.190;2023-05-07T15:17:42;17.80;99.90
5128;DHT22;2582;48.770;9.190;2023-05-07T15:20:08;18.10;99.90
5128;DHT22;2582;48.770;9.190;2023-05-07T15:22:34;18.40;99.90
5128;DHT22;2582;48.770;9.190;2023-05-07T15:25:01;18.50;99.90
5128;DHT22;2582;48.770;9.190;2023-05-07T15:27:27;18.70;99.90
5128;DHT22;2582;48.770;9.190;2023-05-07T15:29:52;18.90;99.90
5128;DHT22;2582;48.770;9.190;2023-05-07T15:32:18;19.00;99.90
5128;DHT22;2582;48.770;9.190;2023-05-07T15:34:43;19.00;99.90
5128;DHT22;2582;48.770;9.190;2023-05-07T15:37:09;18.90;99.90
5128;DHT22;2582;48.770;9.190;2023-05-07T15:39:35;18.80;99.90
5128;DHT22;2582;48.770;9.190;2023-05-07T15:42:00;18.60;99.90
5128;DHT22;2582;48.770;9.190;2023-05-07T15:44:26;18.50;99.90
5128;DHT22;2582;48.770;9.190;2023-05-07T15:46:53;18.70;99.90
5128;DHT22;2582;48.770;9.190;2023-05-07T15:49:19;18.90;99.90
5128;DHT22;2582;48.770;9.190;2023-05-07T15:51:45;18.80;99.90
5128;DHT22;2582;48.770;9.190;2023-05-07T15:54:10;19.00;99.90
5128;DHT22;2582;48.770;9.190;2023-05-07T15:56:36;19.10;99.90
5128;DHT22;2582;48.770;9.190;2023-05-07T15:59:02;19.20;99.90
5128;DHT22;2582;48.770;9.190;2023-05-07T16:01:28;19.00;99.90
5128;DHT22;2582;48.770;9.190;2023-05-07T16:03:54;18.80;99.90
5128;DHT22;2582;48.770;9.190;2023-05-07T16:06:20;18.90;99.90
5128;DHT22;2582;48.770;9.190;2023-05-07T16:08:46;19.00;99.90
5128;DHT22;2582;48.770;9.190;2023-05-07T16:11:11;19.10;99.90
5128;DHT22;2582;48.770;9.190;2023-05-07T16:13:37;19.10;99.90
5128;DHT22;2582;48.770;9.190;2023-05-07T16:16:02;19.10;99.90
5128;DHT22;2582;48.770;9.190;2023-05-07T16:18:28;19.10;99.90
5128;DHT22;2582;48.770;9.190;2023-05-07T16:20:54;18.90;99.90